Time;durP1;ratioP1;P1;durP2;ratioP2;P2;SDS_P1;SDS_P2;PMS_P1;PMS_P2;Temp;Humidity;BMP_temperature;BMP_pressure;BME280_temperature;BME280_humidity;BME280_pressure;Samples;Min_cycle;Max_cycle;Signal;HPM_P1;HPM_P2
2023/06/26 00:00:05;;;;;;;12.52;9.02;;;;;;;21.93;89.71;101115.44;5070104;28;20055;-72
2023/06/26 00:02:51;;;;;;;11.80;8.82;;;;;;;21.91;90.03;101118.28;5052867;28;20059;-73
2023/06/26 00:05:36;;;;;;;10.38;8.45;;;;;;;21.88;90.37;101106.91;5055010;28;20568;-73
2023/06/26 00:08:22;;;;;;;10.20;8.65;;;;;;;21.86;90.42;101114.28;5071805;28;20432;-72
2023/06/26 00:11:08;;;;;;;10.32;8.45;;;;;;;21.84;90.26;101107.19;5055798;28;20046;-72
2023/06/26 00:13:55;;;;;;;10.60;8.45;;;;;;;21.83;90.44;101110.88;5070220;28;20110;-73
2023/06/26 00:16:42;;;;;;;9.98;8.30;;;;;;;21.82;90.96;101109.19;5073287;28;20044;-73
2023/06/26 00:19:28;;;;;;;10.52;8.07;;;;;;;21.79;90.95;101098.66;5078472;28;20028;-72
2023/06/26 00:22:14;;;;;;;12.10;8.55;;;;;;;21.76;91.54;101093.56;5076325;28;20084;-72
2023/06/26 00:24:59;;;;;;;10.68;7.63;;;;;;;21.74;91.65;101092.84;5076019;28;20031;-73
2023/06/26 00:27:45;;;;;;;9.77;8.18;;;;;;;21.70;91.86;101080.63;5048792;28;20040;-73
2023/06/26 00:30:31;;;;;;;11.00;8.10;;;;;;;21.68;92.25;101079.91;5076953;28;20044;-73
2023/06/26 00:33:16;;;;;;;11.43;8.50;;;;;;;21.66;92.23;101076.47;5077805;28;20128;-73
2023/06/26 00:36:05;;;;;;;11.45;8.85;;;;;;;21.63;92.58;101077.59;5076819;28;20055;-73
2023/06/26 00:38:50;;;;;;;12.65;9.25;;;;;;;21.61;92.72;101067.97;5061180;28;20035;-72
2023/06/26 00:41:37;;;;;;;12.02;8.68;;;;;;;21.57;92.76;101062.84;5078154;28;20463;-73
2023/06/26 00:44:23;;;;;;;12.68;9.60;;;;;;;21.57;93.25;101065.53;5077072;28;20032;-72
2023/06/26 00:47:13;;;;;;;11.63;8.70;;;;;;;21.52;93.87;101065.06;5050969;28;20039;-72
2023/06/26 00:49:59;;;;;;;11.75;9.10;;;;;;;21.53;93.64;101056.00;5056721;28;20036;-73
2023/06/26 00:52:44;;;;;;;11.98;8.95;;;;;;;21.53;93.58;101060.56;5063728;28;20032;-72
2023/06/26 00:55:30;;;;;;;11.35;8.73;;;;;;;21.53;93.95;101063.25;5077189;28;20040;-71
2023/06/26 00:58:16;;;;;;;11.52;9.00;;;;;;;21.53;94.13;101057.88;5060953;28;20129;-72
2023/06/26 01:01:03;;;;;;;11.57;9.07;;;;;;;21.53;93.94;101066.78;5060461;28;20067;-72
2023/06/26 01:03:52;;;;;;;11.98;9.73;;;;;;;21.56;93.94;101052.19;5018641;28;20040;-73
2023/06/26 01:06:38;;;;;;;14.40;10.15;;;;;;;21.58;93.66;101053.75;5024715;28;20083;-73
2023/06/26 01:09:24;;;;;;;12.40;9.38;;;;;;;21.62;93.97;101048.13;5040352;28;20055;-72
2023/06/26 01:12:10;;;;;;;11.27;9.25;;;;;;;21.64;94.09;101043.44;5027845;28;20051;-72
2023/06/26 01:14:55;;;;;;;12.43;9.52;;;;;;;21.64;93.85;101041.59;5025799;28;20408;-72
2023/06/26 01:17:44;;;;;;;12.95;9.88;;;;;;;21.66;93.92;101039.63;5025848;28;20049;-72
2023/06/26 01:20:41;;;;;;;11.57;9.00;;;;;;;21.66;95.30;101036.06;5027921;28;20102;-72
2023/06/26 01:23:39;;;;;;;12.25;8.82;;;;;;;21.66;94.54;101041.44;5038315;28;20561;-72
2023/06/26 01:26:29;;;;;;;11.73;9.30;;;;;;;21.64;94.05;101044.31;5040361;28;20041;-72
2023/06/26 01:29:16;;;;;;;11.30;9.27;;;;;;;21.62;94.20;101035.47;5040481;28;20048;-73
2023/06/26 01:32:02;;;;;;;11.32;9.02;;;;;;;21.61;94.37;101043.72;5023793;28;20052;-72
2023/06/26 01:34:49;;;;;;;11.32;8.90;;;;;;;21.56;94.36;101039.59;5050252;28;20047;-72
2023/06/26 01:37:35;;;;;;;11.02;8.57;;;;;;;21.53;94.96;101050.63;5054259;28;20056;-72
2023/06/26 01:40:20;;;;;;;12.65;9.25;;;;;;;21.52;95.34;101057.00;5069014;28;21721;-72
2023/06/26 01:43:08;;;;;;;11.40;9.20;;;;;;;21.48;95.43;101055.59;5085257;28;20047;-72
2023/06/26 01:46:00;;;;;;;13.00;9.57;;;;;;;21.43;96.00;101045.22;5069389;28;20057;-72
2023/06/26 01:48:55;;;;;;;13.00;9.88;;;;;;;;;;5066705;28;20054;-72
2023/06/26 01:52:09;;;;;;;13.35;9.57;;;;;;;21.36;97.89;101041.34;5083323;28;20508;-72
2023/06/26 01:55:04;;;;;;;13.50;9.85;;;;;;;21.30;97.74;101042.75;5064113;28;20036;-72
2023/06/26 01:57:52;;;;;;;14.07;10.35;;;;;;;21.24;97.81;101048.69;5079685;28;20067;-71
2023/06/26 02:00:38;;;;;;;12.80;9.48;;;;;;;21.20;97.77;101055.34;5063801;28;20028;-72
2023/06/26 02:03:27;;;;;;;11.82;9.98;;;;;;;21.15;97.97;101052.19;5078554;28;20131;-71
2023/06/26 02:06:13;;;;;;;11.85;9.50;;;;;;;21.13;98.76;101049.63;5064001;28;20475;-72
2023/06/26 02:08:59;;;;;;;12.90;9.52;;;;;;;21.14;99.71;101048.63;5064703;28;20051;-72
2023/06/26 02:11:44;;;;;;;12.23;10.07;;;;;;;21.12;99.93;101047.06;5067094;28;20519;-72
2023/06/26 02:14:30;;;;;;;11.68;9.27;;;;;;;21.10;100.00;101039.13;5057050;28;20040;-72
2023/06/26 02:17:16;;;;;;;12.63;8.93;;;;;;;21.10;100.00;101035.59;5063921;28;20036;-72
2023/06/26 02:20:01;;;;;;;10.90;8.43;;;;;;;21.10;100.00;101032.88;5074384;28;20592;-72
2023/06/26 02:22:47;;;;;;;9.38;7.50;;;;;;;21.13;100.00;101032.63;5063452;28;20596;-71
2023/06/26 02:25:33;;;;;;;9.40;7.15;;;;;;;21.16;100.00;101037.75;5078075;28;20548;-71
2023/06/26 02:28:19;;;;;;;8.68;6.68;;;;;;;21.18;100.00;101041.13;5077377;28;20048;-72
2023/06/26 02:31:04;;;;;;;8.65;6.10;;;;;;;21.22;100.00;101052.50;5063112;28;20046;-71
2023/06/26 02:33:50;;;;;;;9.73;6.38;;;;;;;21.25;99.54;101063.84;5064475;28;20479;-72
2023/06/26 02:36:36;;;;;;;7.43;5.80;;;;;;;21.27;99.29;101066.41;5078314;28;20189;-72
2023/06/26 02:39:25;;;;;;;7.97;5.38;;;;;;;21.27;98.61;101061.03;5062756;28;20043;-72
2023/06/26 02:42:11;;;;;;;8.35;5.63;;;;;;;21.27;98.28;101066.41;5050899;28;20486;-72
2023/06/26 02:45:00;;;;;;;10.07;5.00;;;;;;;21.25;98.20;101063.00;5048906;28;20529;-72
2023/06/26 02:47:45;;;;;;;8.88;4.75;;;;;;;21.22;98.29;101053.34;5060451;28;22259;-72
2023/06/26 02:50:31;;;;;;;7.85;5.65;;;;;;;21.17;97.78;101055.59;5064188;28;20036;-72
2023/06/26 02:53:17;;;;;;;9.18;5.10;;;;;;;21.13;97.77;101055.00;5077900;28;20535;-72
2023/06/26 02:56:03;;;;;;;7.53;5.40;;;;;;;21.07;98.13;101052.00;5078348;28;21647;-71
2023/06/26 02:58:49;;;;;;;8.52;5.05;;;;;;;20.99;98.56;101056.22;5053294;28;20511;-71
2023/06/26 03:01:35;;;;;;;7.70;4.97;;;;;;;20.93;99.09;101051.38;5061076;28;20070;-72
2023/06/26 03:04:21;;;;;;;8.60;5.28;;;;;;;20.88;99.86;101056.28;5062570;28;20465;-72
2023/06/26 03:07:07;;;;;;;7.40;5.75;;;;;;;20.83;99.97;101053.97;5061982;28;20047;-72
2023/06/26 03:09:52;;;;;;;10.77;6.28;;;;;;;20.81;100.00;101055.09;5061670;28;20036;-71
2023/06/26 03:12:38;;;;;;;9.43;6.03;;;;;;;20.74;100.00;101050.22;5078399;28;20044;-72
2023/06/26 03:15:24;;;;;;;9.65;6.28;;;;;;;20.70;100.00;101064.06;5078928;28;20382;-71
2023/06/26 03:18:09;;;;;;;8.52;5.90;;;;;;;20.65;100.00;101053.72;5068171;28;20124;-72
2023/06/26 03:20:56;;;;;;;10.70;6.35;;;;;;;20.59;100.00;101054.22;5062368;28;20032;-72
2023/06/26 03:23:43;;;;;;;11.10;6.78;;;;;;;20.56;100.00;101067.94;5079010;28;20127;-73
2023/06/26 03:26:29;;;;;;;10.40;6.45;;;;;;;20.53;100.00;101068.19;5058707;28;20098;-72
2023/06/26 03:29:15;;;;;;;10.05;6.57;;;;;;;20.49;100.00;101084.56;5078585;28;20513;-73
2023/06/26 03:32:01;;;;;;;12.57;6.38;;;;;;;20.46;100.00;101076.78;5064679;28;20036;-73
2023/06/26 03:34:46;;;;;;;11.00;6.60;;;;;;;20.44;100.00;101080.56;5065450;28;20793;-73
2023/06/26 03:37:33;;;;;;;14.32;6.97;;;;;;;20.39;100.00;101064.84;5080104;28;20048;-73
2023/06/26 03:40:18;;;;;;;12.55;6.80;;;;;;;20.38;100.00;101073.88;5063735;28;20055;-71
2023/06/26 03:43:04;;;;;;;11.95;6.72;;;;;;;20.38;100.00;101091.84;5050912;28;20479;-73
2023/06/26 03:45:50;;;;;;;11.82;6.60;;;;;;;20.34;100.00;101081.34;5065661;28;20201;-73
2023/06/26 03:48:37;;;;;;;12.75;6.88;;;;;;;20.30;100.00;101087.97;5062549;28;20052;-72
2023/06/26 03:51:23;;;;;;;12.55;7.68;;;;;;;20.19;100.00;101082.63;5058659;28;20040;-72
2023/06/26 03:54:08;;;;;;;14.65;8.18;;;;;;;20.09;100.00;101093.25;5075841;28;20083;-71
2023/06/26 03:56:54;;;;;;;15.25;8.48;;;;;;;19.94;100.00;101090.81;5076016;28;20050;-72
2023/06/26 03:59:40;;;;;;;16.00;8.73;;;;;;;19.83;100.00;101108.81;5075751;28;21727;-72
2023/06/26 04:02:26;;;;;;;15.52;9.10;;;;;;;19.70;100.00;101100.88;5075891;28;20093;-72
2023/06/26 04:05:17;;;;;;;13.50;9.20;;;;;;;19.60;100.00;101085.50;5044300;28;20036;-72
2023/06/26 04:08:05;;;;;;;15.70;10.00;;;;;;;19.54;100.00;101094.03;5056056;28;20059;-72
2023/06/26 04:10:51;;;;;;;20.42;10.45;;;;;;;19.49;100.00;101101.59;5077361;28;20077;-71
2023/06/26 04:13:37;;;;;;;15.57;8.93;;;;;;;19.44;100.00;101101.13;5063038;28;20032;-72
2023/06/26 04:16:26;;;;;;;18.35;8.40;;;;;;;19.38;100.00;101110.50;5077371;28;21844;-71
2023/06/26 04:19:13;;;;;;;17.20;9.07;;;;;;;19.33;100.00;101118.94;5075763;28;20119;-71
2023/06/26 04:21:59;;;;;;;14.85;8.98;;;;;;;19.30;100.00;101129.94;5076116;28;20062;-73
2023/06/26 04:24:45;;;;;;;14.15;8.38;;;;;;;19.29;100.00;101132.72;5061741;28;20115;-72
2023/06/26 04:27:31;;;;;;;18.75;7.50;;;;;;;19.24;100.00;101120.50;5076501;28;20039;-72
2023/06/26 04:30:17;;;;;;;12.18;6.22;;;;;;;19.22;100.00;101117.09;5079027;28;20071;-72
2023/06/26 04:33:03;;;;;;;9.18;5.82;;;;;;;19.20;100.00;101112.81;5076805;28;20052;-72
2023/06/26 04:35:49;;;;;;;10.30;5.63;;;;;;;19.17;100.00;101134.53;5048598;28;20035;-73
2023/06/26 04:38:35;;;;;;;7.68;4.93;;;;;;;19.12;100.00;101149.16;5076671;28;20051;-71
2023/06/26 04:41:21;;;;;;;10.15;4.68;;;;;;;19.12;100.00;101167.94;5077614;28;20032;-72
2023/06/26 04:44:07;;;;;;;7.82;4.95;;;;;;;19.15;100.00;101201.72;5079301;28;21768;-72
2023/06/26 04:46:52;;;;;;;7.38;3.80;;;;;;;19.13;100.00;101204.53;5078034;28;20036;-72
2023/06/26 04:49:38;;;;;;;6.53;3.60;;;;;;;19.11;100.00;101198.44;5048040;28;20671;-72
2023/06/26 04:52:24;;;;;;;8.00;3.47;;;;;;;19.06;100.00;101183.66;5078843;28;20066;-71
2023/06/26 04:55:10;;;;;;;6.88;3.17;;;;;;;18.99;100.00;101175.19;5049553;28;20031;-72
2023/06/26 04:57:55;;;;;;;8.23;3.30;;;;;;;18.93;100.00;101192.59;5057199;28;20043;-72
2023/06/26 05:00:42;;;;;;;8.00;3.13;;;;;;;18.88;100.00;101192.09;5077002;28;20040;-71
2023/06/26 05:03:27;;;;;;;7.25;3.17;;;;;;;18.87;100.00;101193.06;5061691;28;20112;-71
2023/06/26 05:06:13;;;;;;;6.72;3.00;;;;;;;18.86;100.00;101189.50;5077064;28;20051;-72
2023/06/26 05:08:59;;;;;;;6.18;2.70;;;;;;;18.87;100.00;101201.13;5077657;28;20115;-72
2023/06/26 05:11:45;;;;;;;7.32;2.78;;;;;;;18.90;100.00;101203.56;5041693;28;20036;-71
2023/06/26 05:14:30;;;;;;;8.70;2.53;;;;;;;18.93;100.00;101191.75;5077833;28;20040;-71
2023/06/26 05:17:16;;;;;;;7.40;2.60;;;;;;;18.96;100.00;101191.53;5079924;28;20410;-72
2023/06/26 05:20:03;;;;;;;6.53;2.97;;;;;;;19.02;100.00;101196.47;5064938;28;20127;-71
2023/06/26 05:22:49;;;;;;;7.88;2.78;;;;;;;19.04;100.00;101199.00;5053742;28;20064;-73
2023/06/26 05:25:35;;;;;;;7.55;2.67;;;;;;;19.06;100.00;101189.03;5074636;28;20104;-73
2023/06/26 05:28:24;;;;;;;4.80;2.30;;;;;;;19.09;100.00;101196.81;5078140;28;20073;-73
2023/06/26 05:31:10;;;;;;;7.47;2.47;;;;;;;19.09;100.00;101191.47;5057242;28;20283;-72
2023/06/26 05:33:57;;;;;;;4.38;2.65;;;;;;;19.05;100.00;101206.94;5078777;28;20058;-73
2023/06/26 05:36:43;;;;;;;5.15;2.20;;;;;;;19.08;100.00;101212.09;5076219;28;20446;-73
2023/06/26 05:39:29;;;;;;;9.50;2.70;;;;;;;19.14;100.00;101219.66;5063680;28;20024;-74
2023/06/26 05:42:16;;;;;;;6.72;2.38;;;;;;;19.23;100.00;101222.63;5078524;28;20463;-74
2023/06/26 05:45:01;;;;;;;5.25;2.25;;;;;;;19.25;100.00;101232.28;5062752;28;20071;-72
2023/06/26 05:47:47;;;;;;;7.70;2.10;;;;;;;19.37;100.00;101232.28;5077880;28;20457;-73
2023/06/26 05:50:34;;;;;;;5.60;2.47;;;;;;;19.54;100.00;101236.34;5078079;28;20447;-73
2023/06/26 05:53:20;;;;;;;6.95;2.10;;;;;;;19.73;100.00;101248.34;5067992;28;20036;-74
2023/06/26 05:56:06;;;;;;;6.38;1.88;;;;;;;19.91;100.00;101246.91;5081949;28;20093;-73
2023/06/26 05:58:53;;;;;;;5.40;1.83;;;;;;;20.06;100.00;101249.38;5083843;28;20149;-75
2023/06/26 06:01:41;;;;;;;6.80;1.90;;;;;;;20.18;100.00;101261.84;5067567;28;20075;-73
2023/06/26 06:04:26;;;;;;;7.93;1.80;;;;;;;20.30;100.00;101251.94;5065779;28;20036;-74
2023/06/26 06:07:12;;;;;;;3.13;1.85;;;;;;;20.39;100.00;101261.09;5068918;28;20426;-73
2023/06/26 06:09:58;;;;;;;2.75;2.00;;;;;;;20.45;100.00;101263.28;5083855;28;20054;-75
2023/06/26 06:12:44;;;;;;;4.40;1.60;;;;;;;20.57;100.00;101271.31;5050387;28;20119;-73
2023/06/26 06:15:30;;;;;;;4.88;1.60;;;;;;;20.68;100.00;101274.00;5080715;28;20646;-75
2023/06/26 06:18:18;;;;;;;5.28;1.65;;;;;;;20.82;100.00;101280.06;5066743;28;20111;-75
2023/06/26 06:21:04;;;;;;;3.40;1.80;;;;;;;20.95;98.50;101288.00;5080424;28;20493;-74
2023/06/26 06:23:50;;;;;;;3.92;1.52;;;;;;;21.05;96.76;101309.63;5083066;28;20043;-73
2023/06/26 06:26:36;;;;;;;3.97;1.55;;;;;;;21.13;95.65;101307.19;5063966;28;20040;-75
2023/06/26 06:29:22;;;;;;;3.10;1.73;;;;;;;21.22;95.37;101310.91;5079725;28;20165;-73
2023/06/26 06:32:10;;;;;;;4.25;1.83;;;;;;;21.28;94.85;101311.28;5082051;28;20036;-74
2023/06/26 06:34:57;;;;;;;5.10;1.48;;;;;;;21.30;94.06;101320.06;5065287;28;20044;-74
2023/06/26 06:37:43;;;;;;;3.67;1.67;;;;;;;21.37;94.57;101328.50;5080666;28;20060;-74
2023/06/26 06:40:28;;;;;;;3.22;1.40;;;;;;;21.54;93.70;101340.53;5084079;28;20123;-74
2023/06/26 06:43:15;;;;;;;2.92;1.20;;;;;;;21.63;91.48;101346.13;5069286;28;20043;-73
2023/06/26 06:46:01;;;;;;;4.05;1.45;;;;;;;21.66;90.26;101351.25;5083378;28;20051;-72
2023/06/26 06:48:46;;;;;;;7.70;1.40;;;;;;;21.77;89.56;101345.81;5084131;28;20048;-74
2023/06/26 06:51:32;;;;;;;4.88;1.30;;;;;;;21.91;89.94;101338.41;5084785;28;20062;-72
2023/06/26 06:54:19;;;;;;;3.10;1.10;;;;;;;22.03;88.85;101348.13;5080688;28;20036;-72
2023/06/26 06:57:05;;;;;;;5.43;1.23;;;;;;;22.20;88.02;101365.53;5065846;28;20043;-71
2023/06/26 06:59:51;;;;;;;2.88;1.50;;;;;;;22.23;87.61;101364.41;5081804;28;20028;-73
2023/06/26 07:02:37;;;;;;;1.75;1.45;;;;;;;22.27;87.65;101365.84;5068627;28;20074;-72
2023/06/26 07:05:23;;;;;;;2.28;1.20;;;;;;;22.32;87.42;101360.91;5082967;28;20036;-72
2023/06/26 07:08:09;;;;;;;2.78;1.65;;;;;;;22.34;86.90;101377.78;5083731;28;20044;-72
2023/06/26 07:10:56;;;;;;;3.15;1.45;;;;;;;22.32;87.11;101369.00;5080479;28;20035;-72
2023/06/26 07:13:42;;;;;;;2.90;1.20;;;;;;;22.43;85.38;101378.84;5068714;28;21661;-77
2023/06/26 07:16:28;;;;;;;3.47;1.33;;;;;;;22.55;86.03;101382.31;5081536;28;20481;-74
2023/06/26 07:19:14;;;;;;;4.40;1.42;;;;;;;22.55;85.84;101385.00;5059971;28;20050;-76
2023/06/26 07:21:59;;;;;;;3.70;1.58;;;;;;;22.61;85.17;101389.88;5075268;28;20573;-79
2023/06/26 07:24:46;;;;;;;3.03;1.35;;;;;;;22.63;84.25;101393.31;5051730;28;20052;-77
2023/06/26 07:27:33;;;;;;;2.28;1.63;;;;;;;22.76;85.08;101398.44;5061194;28;20149;-77
2023/06/26 07:30:21;;;;;;;2.83;1.58;;;;;;;22.86;84.00;101393.09;5076912;28;20047;-80
2023/06/26 07:33:07;;;;;;;2.10;1.38;;;;;;;22.86;82.88;101403.88;5064350;28;20071;-77
2023/06/26 07:35:52;;;;;;;3.25;1.40;;;;;;;22.90;82.89;101418.81;5079724;28;20036;-76
2023/06/26 07:38:38;;;;;;;2.50;1.70;;;;;;;22.82;83.10;101410.53;5077065;28;20046;-76
2023/06/26 07:41:24;;;;;;;2.92;1.70;;;;;;;22.70;83.00;101411.66;5061728;28;20044;-76
2023/06/26 07:44:10;;;;;;;2.67;1.52;;;;;;;22.57;83.72;101414.56;5067700;28;20094;-77
2023/06/26 07:46:56;;;;;;;3.58;1.80;;;;;;;22.50;84.32;101422.31;5080352;28;20456;-78
2023/06/26 07:49:42;;;;;;;2.42;1.40;;;;;;;22.36;84.18;101427.06;5067098;28;20036;-77
2023/06/26 07:52:30;;;;;;;4.30;1.58;;;;;;;22.32;84.41;101439.09;5080622;28;20032;-82
2023/06/26 07:55:18;;;;;;;4.32;1.98;;;;;;;22.20;85.00;101442.84;5085224;28;20058;-80
2023/06/26 07:58:04;;;;;;;3.00;1.50;;;;;;;22.06;85.71;101439.50;5081826;28;20047;-78
2023/06/26 08:00:49;;;;;;;2.17;1.52;;;;;;;22.04;86.08;101440.59;5069667;28;20048;-80
2023/06/26 08:03:35;;;;;;;2.05;1.40;;;;;;;21.91;86.01;101447.06;5078126;28;20121;-75
2023/06/26 08:06:21;;;;;;;2.65;1.45;;;;;;;21.82;86.06;101442.44;5084464;28;20066;-75
2023/06/26 08:09:07;;;;;;;4.13;1.55;;;;;;;21.93;87.01;101444.22;5085333;28;20518;-77
2023/06/26 08:11:54;;;;;;;3.33;1.70;;;;;;;22.10;85.87;101446.34;5068022;28;21923;-75
2023/06/26 08:14:39;;;;;;;3.58;1.70;;;;;;;22.33;85.85;101451.59;5084087;28;20043;-73
2023/06/26 08:17:25;;;;;;;3.25;1.65;;;;;;;22.43;84.17;101454.34;5068991;28;20044;-75
2023/06/26 08:20:11;;;;;;;4.72;1.60;;;;;;;22.52;84.09;101445.50;5067812;28;20040;-74
2023/06/26 08:23:00;;;;;;;3.08;1.52;;;;;;;22.47;83.78;101452.25;5085494;28;20044;-73
2023/06/26 08:25:46;;;;;;;2.83;1.85;;;;;;;22.56;83.32;101462.28;5081981;28;20047;-74
2023/06/26 08:28:32;;;;;;;4.50;2.00;;;;;;;22.64;82.31;101475.09;5055185;28;20144;-75
2023/06/26 08:31:19;;;;;;;4.03;1.60;;;;;;;22.54;81.80;101466.94;5078860;28;20620;-75
2023/06/26 08:34:05;;;;;;;5.30;2.22;;;;;;;22.52;81.39;101472.50;5079737;28;20035;-75
2023/06/26 08:36:51;;;;;;;3.75;1.92;;;;;;;22.48;82.79;101478.22;5081632;28;20874;-74
2023/06/26 08:39:36;;;;;;;4.15;1.90;;;;;;;22.46;82.45;101467.59;5062449;28;20044;-75
2023/06/26 08:42:22;;;;;;;3.70;1.98;;;;;;;22.44;82.20;101485.72;5065565;28;20160;-76
2023/06/26 08:45:08;;;;;;;3.78;2.00;;;;;;;22.49;82.70;101471.84;5057256;28;20028;-75
2023/06/26 08:47:55;;;;;;;7.22;2.70;;;;;;;22.65;82.42;101487.59;5048131;28;21002;-75
2023/06/26 08:50:41;;;;;;;3.17;2.30;;;;;;;22.56;82.16;101500.06;5066704;28;20043;-73
2023/06/26 08:53:40;;;;;;;5.20;2.47;;;;;;;22.45;82.28;101508.19;5063652;28;20036;-74
2023/06/26 08:56:30;;;;;;;3.38;2.22;;;;;;;22.36;81.63;101504.41;5053054;28;20612;-74
2023/06/26 08:59:16;;;;;;;6.15;2.50;;;;;;;22.32;82.83;101497.56;5065289;28;20034;-73
2023/06/26 09:02:02;;;;;;;4.68;2.67;;;;;;;22.38;82.95;101503.31;5055740;28;20047;-73
2023/06/26 09:04:49;;;;;;;5.00;2.70;;;;;;;22.47;83.90;101522.38;5079329;28;20072;-74
2023/06/26 09:07:34;;;;;;;4.55;2.58;;;;;;;22.44;82.37;101506.47;5081264;28;20039;-74
2023/06/26 09:10:21;;;;;;;5.22;2.53;;;;;;;22.46;80.97;101521.53;5077111;28;20040;-76
2023/06/26 09:13:07;;;;;;;4.50;2.50;;;;;;;22.50;81.11;101516.72;5080125;28;20636;-74
2023/06/26 09:15:54;;;;;;;4.35;2.40;;;;;;;22.60;81.98;101519.53;5078696;28;20075;-75
2023/06/26 09:18:45;;;;;;;3.50;2.58;;;;;;;22.70;79.48;101522.28;5080586;28;20038;-76
2023/06/26 09:21:31;;;;;;;6.45;2.90;;;;;;;22.87;80.82;101526.22;5081063;28;20075;-74
2023/06/26 09:24:17;;;;;;;5.00;2.50;;;;;;;23.16;81.64;101534.41;5064140;28;20032;-74
2023/06/26 09:27:03;;;;;;;5.07;2.40;;;;;;;23.42;80.68;101533.97;5063959;28;20043;-76
2023/06/26 09:29:48;;;;;;;3.03;2.20;;;;;;;23.45;78.89;101532.84;5068009;28;20032;-74
2023/06/26 09:32:36;;;;;;;3.17;2.10;;;;;;;23.55;78.01;101539.13;5045037;28;20107;-74
2023/06/26 09:35:22;;;;;;;3.47;2.33;;;;;;;23.56;76.69;101530.03;5053537;28;20172;-74
2023/06/26 09:38:08;;;;;;;3.58;2.17;;;;;;;23.43;76.78;101545.66;5081217;28;20541;-75
2023/06/26 09:40:57;;;;;;;3.65;2.17;;;;;;;23.44;76.69;101550.06;5081183;28;20100;-75
2023/06/26 09:43:47;;;;;;;4.57;2.67;;;;;;;23.28;75.30;101551.41;5052505;28;20056;-77
2023/06/26 09:46:33;;;;;;;3.35;1.70;;;;;;;23.04;76.03;101543.63;5087127;28;20028;-75
2023/06/26 09:49:19;;;;;;;3.13;1.95;;;;;;;23.10;76.48;101547.63;5069202;28;20054;-75
2023/06/26 09:52:05;;;;;;;3.42;1.70;;;;;;;23.20;75.12;101565.56;5064254;28;20040;-75
2023/06/26 09:54:51;;;;;;;5.28;1.75;;;;;;;23.23;74.54;101560.88;5064436;28;20032;-75
2023/06/26 09:57:38;;;;;;;4.15;1.60;;;;;;;23.30;74.68;101568.34;5066614;28;20047;-74
2023/06/26 10:00:23;;;;;;;2.72;1.50;;;;;;;23.26;73.81;101560.63;5084399;28;20051;-75
2023/06/26 10:03:12;;;;;;;4.95;1.63;;;;;;;23.01;72.86;101574.44;5084434;28;20060;-75
2023/06/26 10:06:00;;;;;;;4.07;1.75;;;;;;;22.93;74.08;101574.22;5085677;28;20036;-76
2023/06/26 10:08:47;;;;;;;4.85;1.58;;;;;;;22.97;74.46;101573.00;5051206;28;20110;-74
2023/06/26 10:11:47;;;;;;;3.45;1.88;;;;;;;22.93;74.29;101576.94;5062986;28;20051;-76
2023/06/26 10:14:41;;;;;;;3.08;1.85;;;;;;;22.86;73.61;101576.63;5079496;28;20093;-76
2023/06/26 10:17:36;;;;;;;3.22;1.55;;;;;;;22.68;73.67;101587.16;5067104;28;20574;-80
2023/06/26 10:20:21;;;;;;;4.05;1.50;;;;;;;22.59;74.59;101579.84;5050407;28;20059;-77
2023/06/26 10:23:10;;;;;;;4.75;1.30;;;;;;;22.57;75.15;101582.69;5067705;28;20169;-78
2023/06/26 10:25:58;;;;;;;6.53;1.70;;;;;;;22.62;74.09;101602.03;5067344;28;20057;-80
2023/06/26 10:28:45;;;;;;;3.33;1.40;;;;;;;22.56;73.50;101610.66;5083296;28;20036;-81
2023/06/26 10:31:31;;;;;;;3.45;1.10;;;;;;;22.37;73.76;101605.91;5055705;28;20490;-78
2023/06/26 10:34:17;;;;;;;2.70;1.25;;;;;;;22.43;73.87;101599.16;5053399;28;20071;-77
2023/06/26 10:37:04;;;;;;;2.33;1.20;;;;;;;22.37;73.45;101608.63;5050811;28;20661;-78
2023/06/26 10:39:54;;;;;;;2.28;1.20;;;;;;;22.24;73.68;101615.03;5052453;28;20193;-79
2023/06/26 10:42:40;;;;;;;4.57;1.20;;;;;;;22.16;74.12;101622.91;5053236;28;20055;-78
2023/06/26 10:45:28;;;;;;;3.95;1.10;;;;;;;22.17;74.59;101623.78;5081843;28;20043;-83
2023/06/26 10:48:18;;;;;;;3.95;1.40;;;;;;;22.23;74.66;101625.97;5082469;28;20136;-78
2023/06/26 10:51:14;;;;;;;4.00;1.42;;;;;;;22.28;73.27;101629.13;5070223;28;20028;-79
2023/06/26 10:54:00;;;;;;;3.35;1.40;;;;;;;22.16;73.02;101622.06;5057239;28;20101;-76
2023/06/26 10:56:47;;;;;;;1.75;1.05;;;;;;;22.17;71.97;101624.63;5087593;28;20032;-80
2023/06/26 10:59:33;;;;;;;1.27;1.00;;;;;;;22.27;69.46;101623.88;5060995;28;20035;-79
2023/06/26 11:02:19;;;;;;;4.53;1.13;;;;;;;22.42;70.48;101632.50;5076163;28;20070;-75
2023/06/26 11:05:06;;;;;;;2.38;1.20;;;;;;;22.61;70.08;101645.34;5068422;28;20449;-75
2023/06/26 11:08:03;;;;;;;3.00;0.90;;;;;;;22.49;66.69;101655.28;5072054;28;20032;-76
2023/06/26 11:10:53;;;;;;;3.58;1.23;;;;;;;22.28;66.26;101647.16;5084171;28;20501;-76
2023/06/26 11:13:46;;;;;;;1.98;1.00;;;;;;;22.34;68.65;101650.19;5086251;28;20390;-74
2023/06/26 11:16:32;;;;;;;;;;;;;;;22.52;65.81;101650.53;5071046;28;20391;-75
2023/06/26 11:19:18;;;;;;;2.97;1.13;;;;;;;22.70;69.05;101646.41;5071755;28;20396;-76
2023/06/26 11:22:05;;;;;;;2.70;1.40;;;;;;;22.83;69.73;101647.06;5079286;28;20108;-74
2023/06/26 11:24:53;;;;;;;2.58;1.00;;;;;;;22.67;68.75;101641.25;5081392;28;20052;-74
2023/06/26 11:27:42;;;;;;;2.83;1.00;;;;;;;22.58;68.00;101661.78;5064806;28;20039;-74
2023/06/26 11:30:28;;;;;;;5.18;1.20;;;;;;;22.71;69.95;101656.22;5080373;28;20506;-75
2023/06/26 11:33:14;;;;;;;4.85;1.20;;;;;;;22.58;69.11;101662.66;5062604;28;20036;-74
2023/06/26 11:36:08;;;;;;;1.33;1.10;;;;;;;22.35;69.84;101670.75;5051647;28;20565;-75
2023/06/26 11:39:01;;;;;;;5.07;1.55;;;;;;;22.48;69.84;101670.63;5079792;28;20494;-75
2023/06/26 11:41:47;;;;;;;3.92;1.27;;;;;;;22.63;69.39;101678.44;5082756;28;20051;-76
2023/06/26 11:44:39;;;;;;;4.10;1.20;;;;;;;22.68;70.25;101669.94;5081016;28;20062;-75
2023/06/26 11:47:25;;;;;;;;;;;;;;;22.60;68.39;101682.25;5078957;28;20096;-75
2023/06/26 11:50:17;;;;;;;7.15;1.23;;;;;;;22.50;69.69;101692.09;5065717;28;19916;-74
2023/06/26 11:53:05;;;;;;;3.67;1.27;;;;;;;22.25;69.49;101694.97;5082491;28;20035;-75
2023/06/26 11:55:50;;;;;;;3.65;1.38;;;;;;;22.01;70.09;101705.88;5060695;28;20043;-74
2023/06/26 11:59:02;;;;;;;4.57;1.50;;;;;;;21.96;69.89;101700.88;5078209;28;20106;-75
2023/06/26 12:01:50;;;;;;;4.15;1.30;;;;;;;22.02;71.31;101707.63;5066594;28;20040;-73
2023/06/26 12:04:41;;;;;;;5.32;1.27;;;;;;;22.07;72.12;101700.00;5081787;28;20074;-75
2023/06/26 12:07:31;;;;;;;3.53;1.08;;;;;;;22.28;71.76;101695.69;5062955;28;20410;-76
2023/06/26 12:10:17;;;;;;;5.35;1.67;;;;;;;22.41;69.81;101711.72;5065862;28;20181;-78
2023/06/26 12:13:03;;;;;;;2.55;1.30;;;;;;;22.47;70.38;101725.56;5067456;28;20394;-79
2023/06/26 12:15:51;;;;;;;4.60;1.52;;;;;;;22.47;70.71;101719.28;5065628;28;20117;-78
2023/06/26 12:18:38;;;;;;;3.13;1.20;;;;;;;22.29;70.00;101719.84;5080242;28;20061;-76
2023/06/26 12:21:43;;;;;;;4.55;1.20;;;;;;;22.02;70.45;101721.09;5076050;28;20040;-77
2023/06/26 12:24:29;;;;;;;3.03;1.08;;;;;;;21.94;70.93;101737.03;5079060;28;20044;-80
2023/06/26 12:27:19;;;;;;;3.17;1.30;;;;;;;21.93;71.57;101746.09;5078347;28;20036;-78
2023/06/26 12:30:05;;;;;;;2.85;1.08;;;;;;;22.06;72.39;101743.28;5080190;28;20043;-81
2023/06/26 12:32:55;;;;;;;4.55;1.10;;;;;;;22.09;72.26;101741.19;5082045;28;20105;-77
2023/06/26 12:35:41;;;;;;;3.47;1.10;;;;;;;22.08;71.79;101746.72;5080803;28;20381;-76
2023/06/26 12:38:33;;;;;;;3.13;1.30;;;;;;;22.08;71.61;101742.19;5081112;28;20057;-74
2023/06/26 12:41:27;;;;;;;2.67;1.52;;;;;;;22.10;71.20;101751.00;5066902;28;20047;-76
2023/06/26 12:44:25;;;;;;;6.25;1.40;;;;;;;22.02;72.60;101753.47;5066972;28;20487;-77
2023/06/26 12:47:13;;;;;;;4.90;1.45;;;;;;;22.02;72.96;101761.53;5055797;28;20842;-79
2023/06/26 12:50:05;;;;;;;5.75;1.50;;;;;;;22.01;72.02;101757.09;5081095;28;20057;-77
2023/06/26 12:52:53;;;;;;;2.42;1.20;;;;;;;21.93;72.35;101759.56;5045717;28;20060;-77